Time;durP1;ratioP1;P1;durP2;ratioP2;P2;SDS_P1;SDS_P2;PMS_P1;PMS_P2;Temp;Humidity;BMP_temperature;BMP_pressure;BME280_temperature;BME280_humidity;BME280_pressure;Samples;Min_cycle;Max_cycle;Signal;HPM_P1;HPM_P2
2022/07/02 00:01:59;;;;;;;5.78;2.70;;;13.70;99.90;;;;;;4883856;29;20092;-80
2022/07/02 00:04:32;;;;;;;4.80;2.50;;;13.70;99.90;;;;;;4886689;29;20739;-80
2022/07/02 00:06:58;;;;;;;5.05;2.25;;;13.70;99.90;;;;;;4880821;29;20060;-80
2022/07/02 00:09:26;;;;;;;6.45;2.60;;;13.70;99.90;;;;;;4892018;29;20068;-80
2022/07/02 00:11:54;;;;;;;5.60;2.80;;;13.70;99.90;;;;;;4853346;29;20105;-79
2022/07/02 00:14:20;;;;;;;4.95;2.53;;;13.70;99.90;;;;;;4885502;29;20040;-79
2022/07/02 00:16:46;;;;;;;5.97;2.70;;;13.60;99.90;;;;;;4885526;29;20207;-79
2022/07/02 00:19:15;;;;;;;5.03;2.70;;;14.20;99.90;;;;;;4886128;29;20187;-80
2022/07/02 00:21:40;;;;;;;5.28;2.50;;;13.10;99.90;;;;;;4876317;29;20822;-80
2022/07/02 00:24:09;;;;;;;6.53;3.08;;;13.60;99.90;;;;;;4879740;29;20053;-79
2022/07/02 00:26:40;;;;;;;7.50;2.88;;;13.60;99.90;;;;;;4885707;29;20048;-80
2022/07/02 00:29:31;;;;;;;6.20;2.70;;;13.60;99.90;;;;;;4884634;29;20788;-80
2022/07/02 00:31:58;;;;;;;7.85;2.78;;;13.50;99.90;;;;;;4864453;29;20167;-79
2022/07/02 00:34:25;;;;;;;9.07;3.13;;;13.50;99.90;;;;;;4884510;29;20037;-79
2022/07/02 00:36:51;;;;;;;4.93;2.42;;;14.10;99.90;;;;;;4867661;29;20789;-80
2022/07/02 00:39:16;;;;;;;5.13;2.75;;;13.50;99.90;;;;;;4866214;29;20108;-80
2022/07/02 00:41:44;;;;;;;9.50;3.10;;;13.50;99.90;;;;;;4863767;29;20055;-79
2022/07/02 00:44:11;;;;;;;5.90;3.22;;;13.80;99.90;;;;;;4862349;29;21031;-79
2022/07/02 00:46:38;;;;;;;6.97;3.08;;;13.50;99.90;;;;;;4874202;29;20059;-80
2022/07/02 00:49:04;;;;;;;6.70;3.88;;;13.40;99.90;;;;;;4884881;29;20080;-79
2022/07/02 00:51:29;;;;;;;6.85;3.55;;;13.40;99.90;;;;;;4869823;29;20194;-80
2022/07/02 00:53:55;;;;;;;9.13;3.20;;;13.40;99.90;;;;;;4885672;29;20113;-80
2022/07/02 00:56:21;;;;;;;5.85;2.88;;;13.40;99.90;;;;;;4867202;29;20118;-80
2022/07/02 00:58:47;;;;;;;9.60;2.92;;;13.30;99.90;;;;;;4869762;29;20059;-80
2022/07/02 01:01:13;;;;;;;5.53;3.35;;;13.30;99.90;;;;;;4888356;29;20044;-80
2022/07/02 01:03:42;;;;;;;6.60;3.33;;;13.30;99.90;;;;;;4870391;29;20831;-80
2022/07/02 01:06:07;;;;;;;6.47;3.53;;;13.20;99.90;;;;;;4867790;29;20052;-81
2022/07/02 01:11:19;;;;;;;9.43;3.45;;;13.20;99.90;;;;;;4866765;29;20053;-80
2022/07/02 01:13:44;;;;;;;6.03;3.10;;;13.20;99.90;;;;;;4855705;29;20051;-80
2022/07/02 01:16:10;;;;;;;6.45;3.03;;;13.60;99.90;;;;;;4888022;29;20048;-80
2022/07/02 01:18:37;;;;;;;7.22;3.22;;;13.10;99.90;;;;;;4894086;29;20481;-80
2022/07/02 01:21:04;;;;;;;5.97;3.08;;;13.10;99.90;;;;;;4867967;29;20087;-80
2022/07/02 01:23:29;;;;;;;5.93;3.10;;;13.10;99.90;;;;;;4881938;29;20052;-80
2022/07/02 01:25:55;;;;;;;5.88;3.03;;;13.10;99.90;;;;;;4868469;29;20112;-80
2022/07/02 01:28:22;;;;;;;5.38;3.20;;;13.00;99.90;;;;;;4887202;29;21671;-80
2022/07/02 01:30:49;;;;;;;7.57;3.60;;;13.00;99.90;;;;;;4886978;29;20079;-80
2022/07/02 01:33:15;;;;;;;7.07;2.78;;;13.00;99.90;;;;;;4870262;29;20079;-80
2022/07/02 01:35:41;;;;;;;6.80;3.00;;;13.00;99.90;;;;;;4860648;29;20475;-81
2022/07/02 01:38:06;;;;;;;7.13;2.80;;;12.90;99.90;;;;;;4866304;29;20175;-80
2022/07/02 01:40:32;;;;;;;6.10;3.35;;;12.90;99.90;;;;;;4885590;29;20051;-80
2022/07/02 01:42:58;;;;;;;7.93;2.63;;;12.80;99.90;;;;;;4861007;29;20500;-80
2022/07/02 01:45:23;;;;;;;5.45;2.88;;;12.90;99.90;;;;;;4866804;29;20063;-81
2022/07/02 01:47:49;;;;;;;6.82;3.10;;;12.80;99.90;;;;;;4884081;29;20067;-81
2022/07/02 01:50:15;;;;;;;8.15;3.30;;;12.80;99.90;;;;;;4869774;29;20052;-80
2022/07/02 01:52:41;;;;;;;5.65;3.10;;;12.80;99.90;;;;;;4866490;29;20772;-80
2022/07/02 01:55:07;;;;;;;9.07;3.05;;;12.80;99.90;;;;;;4867382;29;20056;-80
2022/07/02 01:57:35;;;;;;;7.28;3.40;;;12.70;99.90;;;;;;4868131;29;20056;-80
2022/07/02 02:00:10;;;;;;;8.20;3.30;;;12.70;99.90;;;;;;4884084;29;20052;-80
2022/07/02 02:02:35;;;;;;;8.55;3.63;;;12.70;99.90;;;;;;4866250;29;20083;-81
2022/07/02 02:05:01;;;;;;;6.47;3.20;;;12.60;99.90;;;;;;4890814;29;20048;-81
2022/07/02 02:07:28;;;;;;;7.40;3.75;;;12.60;99.90;;;;;;4883234;29;20515;-79
2022/07/02 02:09:53;;;;;;;7.10;3.80;;;13.40;99.90;;;;;;4883525;29;20464;-79
2022/07/02 02:12:20;;;;;;;8.98;3.22;;;12.60;99.90;;;;;;4861328;29;20116;-79
2022/07/02 02:14:46;;;;;;;7.88;3.42;;;12.60;99.90;;;;;;4880954;29;20048;-80
2022/07/02 02:17:11;;;;;;;6.93;3.47;;;12.50;99.90;;;;;;4882912;29;20087;-81
2022/07/02 02:19:37;;;;;;;6.65;3.72;;;12.50;99.90;;;;;;4890555;29;20412;-80
2022/07/02 02:22:03;;;;;;;6.60;3.40;;;12.50;99.90;;;;;;4890525;29;20131;-80
2022/07/02 02:24:29;;;;;;;7.40;3.45;;;12.50;99.90;;;;;;4865790;29;20080;-81
2022/07/02 02:26:54;;;;;;;5.43;3.17;;;12.50;99.90;;;;;;4865177;29;20049;-81
2022/07/02 02:29:20;;;;;;;7.78;3.80;;;12.50;99.90;;;;;;4858094;29;20060;-81
2022/07/02 02:31:45;;;;;;;6.05;3.47;;;12.50;99.90;;;;;;4884566;29;20049;-80
2022/07/02 02:34:11;;;;;;;6.78;3.90;;;12.50;99.90;;;;;;4883055;29;20045;-81
2022/07/02 02:36:37;;;;;;;8.38;3.28;;;12.50;99.90;;;;;;4882557;29;20091;-80
2022/07/02 02:39:03;;;;;;;8.25;4.15;;;12.50;99.90;;;;;;4865759;29;20481;-81
2022/07/02 02:41:28;;;;;;;8.75;3.92;;;13.10;99.90;;;;;;4863282;29;20357;-80
2022/07/02 02:43:54;;;;;;;7.68;3.65;;;12.50;99.90;;;;;;4867305;29;20494;-80
2022/07/02 02:46:19;;;;;;;9.13;3.65;;;12.50;99.90;;;;;;4884017;29;20045;-80
2022/07/02 02:48:45;;;;;;;6.95;3.67;;;12.50;99.90;;;;;;4883047;29;20040;-80
2022/07/02 02:51:14;;;;;;;7.75;3.90;;;12.50;99.90;;;;;;4865695;29;20044;-80
2022/07/02 02:53:42;;;;;;;11.02;4.70;;;12.80;99.90;;;;;;4865908;29;20056;-81
2022/07/02 02:56:09;;;;;;;6.93;3.40;;;12.50;99.90;;;;;;4879324;29;20063;-81
2022/07/02 02:58:34;;;;;;;7.45;4.32;;;12.50;99.90;;;;;;4882004;29;20057;-80
2022/07/02 03:01:00;;;;;;;8.13;4.25;;;12.70;99.90;;;;;;4883001;29;20813;-80
2022/07/02 03:03:26;;;;;;;11.75;4.22;;;12.50;99.90;;;;;;4865892;29;20048;-80
2022/07/02 03:05:52;;;;;;;7.82;3.85;;;12.40;99.90;;;;;;4882779;29;20041;-80
2022/07/02 03:08:18;;;;;;;6.88;4.03;;;12.40;99.90;;;;;;4883223;29;20143;-80
2022/07/02 03:10:43;;;;;;;10.63;4.28;;;12.50;99.90;;;;;;4881320;29;20037;-81
2022/07/02 03:13:09;;;;;;;8.98;4.20;;;12.40;99.90;;;;;;4865798;29;20052;-80
2022/07/02 03:15:38;;;;;;;7.80;4.05;;;12.40;99.90;;;;;;4855282;29;20774;-81
2022/07/02 03:18:03;;;;;;;8.13;4.35;;;12.40;99.90;;;;;;4879707;29;20063;-80
2022/07/02 03:20:31;;;;;;;8.15;4.05;;;12.40;99.90;;;;;;4883735;29;20037;-81
2022/07/02 03:22:57;;;;;;;7.78;3.80;;;12.40;99.90;;;;;;4865513;29;20052;-80
2022/07/02 03:25:22;;;;;;;10.15;4.78;;;12.40;99.90;;;;;;4881824;29;20049;-81
2022/07/02 03:27:48;;;;;;;8.60;4.90;;;12.60;99.90;;;;;;4883758;29;20536;-80
2022/07/02 03:30:13;;;;;;;11.13;4.50;;;12.40;99.90;;;;;;4865666;29;20047;-80
2022/07/02 03:32:39;;;;;;;8.57;5.18;;;12.40;99.90;;;;;;4861502;29;20601;-80
2022/07/02 03:35:05;;;;;;;7.88;3.83;;;12.40;99.90;;;;;;4901355;29;20119;-80
2022/07/02 03:37:30;;;;;;;6.15;3.72;;;12.30;99.90;;;;;;4867529;29;20041;-79
2022/07/02 03:39:56;;;;;;;15.68;4.95;;;12.30;99.90;;;;;;4883960;29;20115;-79
2022/07/02 03:42:23;;;;;;;9.23;4.55;;;12.30;99.90;;;;;;4862408;29;20874;-80
2022/07/02 03:44:49;;;;;;;8.85;5.00;;;12.30;99.90;;;;;;4885997;29;20056;-79
2022/07/02 03:47:15;;;;;;;7.82;4.75;;;12.30;99.90;;;;;;4869550;29;20040;-79
2022/07/02 03:49:40;;;;;;;12.38;5.15;;;12.30;99.90;;;;;;4869177;29;20516;-79
2022/07/02 03:52:06;;;;;;;9.02;5.00;;;12.80;99.90;;;;;;4868736;29;20167;-80
2022/07/02 03:54:35;;;;;;;9.52;4.30;;;12.30;99.90;;;;;;4885784;29;20052;-79
2022/07/02 03:57:00;;;;;;;12.20;5.25;;;12.30;99.90;;;;;;4885779;29;20049;-79
2022/07/02 03:59:26;;;;;;;8.40;4.65;;;13.00;99.90;;;;;;4869777;29;20055;-79
2022/07/02 04:01:54;;;;;;;9.50;4.68;;;12.30;99.90;;;;;;4857777;29;20457;-79
2022/07/02 04:04:20;;;;;;;9.23;5.10;;;12.30;99.90;;;;;;4874159;29;20051;-79
2022/07/02 04:06:46;;;;;;;8.25;4.90;;;12.30;99.90;;;;;;4870948;29;20040;-79
2022/07/02 04:09:13;;;;;;;13.00;5.47;;;12.30;99.90;;;;;;4867405;29;20060;-79
2022/07/02 04:11:39;;;;;;;9.27;5.32;;;12.30;99.90;;;;;;4870268;29;20052;-79
2022/07/02 04:14:04;;;;;;;6.50;4.72;;;12.30;99.90;;;;;;4875357;29;20515;-79
2022/07/02 04:16:30;;;;;;;8.07;5.43;;;12.30;99.90;;;;;;4896881;29;20076;-79
2022/07/02 04:18:56;;;;;;;8.40;5.15;;;12.90;99.90;;;;;;4885428;29;20938;-80
2022/07/02 04:21:21;;;;;;;10.27;4.75;;;12.30;99.90;;;;;;4886698;29;20048;-79
2022/07/02 04:23:47;;;;;;;11.93;5.93;;;12.30;99.90;;;;;;4885875;29;20059;-79
2022/07/02 04:26:12;;;;;;;12.20;5.72;;;12.30;99.90;;;;;;4884151;29;20052;-79
2022/07/02 04:28:38;;;;;;;12.32;5.47;;;12.30;99.90;;;;;;4867192;29;20052;-79
2022/07/02 04:31:04;;;;;;;10.90;5.43;;;12.40;99.90;;;;;;4868740;29;20787;-79
2022/07/02 04:33:29;;;;;;;7.90;5.45;;;12.40;99.90;;;;;;4863469;29;20056;-80
2022/07/02 04:35:55;;;;;;;10.88;5.90;;;12.40;99.90;;;;;;4886973;29;20056;-79
2022/07/02 04:38:21;;;;;;;9.80;5.93;;;12.50;99.90;;;;;;4885789;29;20060;-79
2022/07/02 04:40:46;;;;;;;11.82;6.13;;;12.50;99.90;;;;;;4884657;29;20612;-79
2022/07/02 04:43:12;;;;;;;8.38;5.53;;;12.50;99.90;;;;;;4885819;29;20049;-79
2022/07/02 04:45:37;;;;;;;10.32;6.15;;;12.60;99.90;;;;;;4885178;29;20113;-79
2022/07/02 04:48:04;;;;;;;9.93;6.32;;;12.80;99.90;;;;;;4888634;29;20052;-79
2022/07/02 04:50:30;;;;;;;9.40;6.13;;;12.60;99.90;;;;;;4867495;29;20076;-79
2022/07/02 04:52:56;;;;;;;9.88;6.10;;;12.70;99.90;;;;;;4867379;29;20136;-79
2022/07/02 04:55:21;;;;;;;9.43;6.18;;;12.70;99.90;;;;;;4883613;29;20070;-79
2022/07/02 04:57:47;;;;;;;11.43;6.43;;;12.70;99.90;;;;;;4869050;29;20080;-79
2022/07/02 05:00:13;;;;;;;10.88;7.10;;;12.70;99.90;;;;;;4885122;29;20056;-79
2022/07/02 05:02:39;;;;;;;8.95;6.75;;;12.80;99.90;;;;;;4870921;29;20496;-79
2022/07/02 05:05:05;;;;;;;10.13;6.82;;;12.80;99.90;;;;;;4868431;29;20073;-79
2022/07/02 05:07:31;;;;;;;11.43;7.50;;;12.80;99.90;;;;;;4869035;29;20049;-79
2022/07/02 05:09:58;;;;;;;16.70;8.10;;;12.80;99.90;;;;;;4883281;29;20056;-79
2022/07/02 05:12:24;;;;;;;12.60;7.75;;;12.90;99.90;;;;;;4885171;29;20045;-79
2022/07/02 05:14:51;;;;;;;16.33;8.27;;;12.90;99.90;;;;;;4868767;29;20150;-79
2022/07/02 05:17:17;;;;;;;9.88;7.63;;;13.00;99.90;;;;;;4868070;29;20134;-79
2022/07/02 05:19:43;;;;;;;13.75;7.68;;;13.10;99.90;;;;;;4885179;29;20695;-80
2022/07/02 05:22:08;;;;;;;12.77;7.35;;;13.10;99.90;;;;;;4867859;29;20052;-79
2022/07/02 05:24:34;;;;;;;11.82;7.78;;;13.10;99.90;;;;;;4867639;29;20053;-80
2022/07/02 05:27:00;;;;;;;14.80;6.82;;;13.10;99.90;;;;;;4884742;29;20052;-79
2022/07/02 05:29:26;;;;;;;11.40;7.60;;;13.20;99.90;;;;;;4887614;29;20747;-79
2022/07/02 05:31:52;;;;;;;10.43;6.75;;;13.30;99.90;;;;;;4885442;29;20806;-79
2022/07/02 05:34:17;;;;;;;12.27;7.05;;;13.30;99.90;;;;;;4871982;29;20060;-79
2022/07/02 05:36:43;;;;;;;10.93;7.43;;;13.30;99.90;;;;;;4861481;29;20148;-79
2022/07/02 05:39:08;;;;;;;14.07;7.50;;;13.40;99.90;;;;;;4857189;29;20044;-79
2022/07/02 05:41:34;;;;;;;9.93;6.43;;;13.50;99.90;;;;;;4885192;29;20168;-79
2022/07/02 05:44:00;;;;;;;12.73;6.68;;;13.50;99.90;;;;;;4878801;29;20051;-79
2022/07/02 05:46:25;;;;;;;9.52;6.32;;;13.50;99.90;;;;;;4850730;29;20061;-79
2022/07/02 05:48:51;;;;;;;10.65;6.15;;;13.60;99.90;;;;;;4885361;29;20055;-79
2022/07/02 05:51:17;;;;;;;9.10;6.07;;;13.60;99.90;;;;;;4887440;29;20051;-79
2022/07/02 05:53:44;;;;;;;9.30;6.07;;;13.70;99.90;;;;;;4890431;29;20053;-78
2022/07/02 05:56:11;;;;;;;9.52;5.63;;;13.70;99.90;;;;;;4885252;29;20057;-79
2022/07/02 05:58:36;;;;;;;15.18;6.18;;;13.80;99.90;;;;;;4867627;29;20207;-79
2022/07/02 06:01:02;;;;;;;9.73;5.22;;;13.90;99.90;;;;;;4860235;29;20712;-80
2022/07/02 06:03:30;;;;;;;9.57;5.38;;;13.90;99.90;;;;;;4873194;29;20056;-80
2022/07/02 06:08:40;;;;;;;8.95;5.38;;;14.40;99.90;;;;;;4868450;29;20079;-79
2022/07/02 06:11:06;;;;;;;10.15;4.90;;;14.40;99.90;;;;;;4876764;29;20060;-80
2022/07/02 06:13:32;;;;;;;8.45;4.78;;;14.20;99.90;;;;;;4875856;29;20044;-80
2022/07/02 06:15:58;;;;;;;8.73;4.60;;;14.30;99.90;;;;;;4867478;29;20116;-80
2022/07/02 06:18:24;;;;;;;9.65;4.20;;;14.90;99.90;;;;;;4868889;29;20056;-80
2022/07/02 06:20:50;;;;;;;8.77;4.53;;;14.40;99.90;;;;;;4867493;29;20112;-80
2022/07/02 06:23:16;;;;;;;12.70;5.05;;;14.40;99.90;;;;;;4867372;29;20568;-80
2022/07/02 06:25:42;;;;;;;9.13;4.45;;;14.50;99.90;;;;;;4867018;29;20079;-80
2022/07/02 06:28:07;;;;;;;10.82;4.25;;;14.50;99.90;;;;;;4878428;29;20776;-80
2022/07/02 06:30:33;;;;;;;9.23;3.90;;;14.50;99.90;;;;;;4868560;29;20171;-79
2022/07/02 06:32:58;;;;;;;9.35;3.90;;;14.60;99.90;;;;;;4883991;29;20055;-79
2022/07/02 06:35:24;;;;;;;8.75;4.15;;;14.70;99.90;;;;;;4868346;29;20048;-80
2022/07/02 06:37:49;;;;;;;11.77;3.90;;;15.20;99.90;;;;;;4873152;29;20052;-80
2022/07/02 06:40:15;;;;;;;9.73;3.60;;;14.90;99.90;;;;;;4880862;29;20087;-79
2022/07/02 06:42:41;;;;;;;7.90;3.85;;;15.00;99.90;;;;;;4885985;29;20151;-80
2022/07/02 06:45:07;;;;;;;10.30;3.90;;;15.10;99.90;;;;;;4866857;29;20056;-79
2022/07/02 06:47:39;;;;;;;10.70;3.53;;;15.20;99.90;;;;;;4861546;29;20049;-79
2022/07/02 06:50:06;;;;;;;11.25;2.92;;;15.60;99.90;;;;;;4858818;29;20851;-79
2022/07/02 06:52:32;;;;;;;6.93;3.00;;;15.30;99.90;;;;;;4868218;29;20135;-80
2022/07/02 06:54:58;;;;;;;8.82;3.17;;;15.40;99.90;;;;;;4882131;29;20059;-82
2022/07/02 06:57:24;;;;;;;7.55;2.22;;;15.40;99.90;;;;;;4869745;29;20048;-79
2022/07/02 06:59:50;;;;;;;6.05;2.00;;;15.50;99.90;;;;;;4881810;29;20854;-79
2022/07/02 07:02:16;;;;;;;8.65;2.45;;;15.80;99.90;;;;;;4884156;29;20136;-79
2022/07/02 07:04:42;;;;;;;5.38;2.10;;;15.80;99.90;;;;;;4866927;29;20045;-79
2022/07/02 07:07:10;;;;;;;3.65;1.55;;;15.60;99.90;;;;;;4882701;29;20051;-76
2022/07/02 07:09:36;;;;;;;3.70;1.88;;;16.00;99.90;;;;;;4882244;29;20143;-78
2022/07/02 07:12:08;;;;;;;6.80;1.80;;;16.20;99.90;;;;;;4888335;29;20576;-76
2022/07/02 07:14:34;;;;;;;4.88;1.48;;;16.40;99.90;;;;;;4885355;29;20056;-77
2022/07/02 07:17:07;;;;;;;5.60;1.40;;;16.60;99.90;;;;;;4885411;29;20618;-77
2022/07/02 07:19:33;;;;;;;4.40;1.30;;;17.00;99.90;;;;;;4887990;29;20057;-77
2022/07/02 07:22:03;;;;;;;3.90;1.20;;;17.40;99.90;;;;;;4876354;29;20061;-78
2022/07/02 07:24:40;;;;;;;2.30;0.90;;;17.60;99.90;;;;;;4886182;29;20708;-80
2022/07/02 07:34:42;;;;;;;5.15;1.33;;;18.70;99.90;;;;;;5056431;28;20467;-78
2022/07/02 07:37:11;;;;;;;6.32;1.52;;;19.00;99.90;;;;;;5064609;28;20131;-78
2022/07/02 07:39:39;;;;;;;4.63;1.80;;;19.20;99.90;;;;;;5059947;28;20048;-79
2022/07/02 07:42:09;;;;;;;5.38;1.80;;;19.30;99.90;;;;;;5070425;28;20051;-77
2022/07/02 07:44:35;;;;;;;3.28;1.33;;;19.40;99.90;;;;;;5065408;28;20616;-76
2022/07/02 07:47:00;;;;;;;5.28;1.52;;;19.60;99.90;;;;;;5058512;28;20053;-77
2022/07/02 07:49:26;;;;;;;4.60;4.05;;;19.60;99.90;;;;;;5047714;28;20060;-76
2022/07/02 07:51:51;;;;;;;7.07;5.57;;;19.60;99.90;;;;;;5047159;28;20560;-78
2022/07/02 07:54:17;;;;;;;6.38;2.92;;;19.70;99.90;;;;;;5063226;28;20052;-77
2022/07/02 07:59:20;;;;;;;4.50;1.17;;;19.80;99.90;;;;;;5117307;27;20442;-75
2022/07/02 08:01:45;;;;;;;4.38;1.25;;;20.00;99.90;;;;;;5102917;28;20146;-75
2022/07/02 08:04:12;;;;;;;3.85;1.65;;;20.00;99.90;;;;;;5088846;28;20040;-75
2022/07/02 08:06:38;;;;;;;4.28;1.10;;;20.10;99.90;;;;;;5095127;27;20063;-76
2022/07/02 08:09:03;;;;;;;2.97;1.00;;;20.20;99.90;;;;;;5085617;28;20862;-76
2022/07/02 08:11:29;;;;;;;4.45;1.20;;;20.30;99.90;;;;;;5106379;28;20078;-75
2022/07/02 08:13:55;;;;;;;6.07;1.70;;;20.30;99.90;;;;;;5082554;28;20198;-76
2022/07/02 08:16:21;;;;;;;4.55;1.17;;;20.20;99.90;;;;;;5096079;28;20059;-75
2022/07/02 08:18:46;;;;;;;2.45;1.10;;;20.20;99.90;;;;;;5086015;28;20048;-75
2022/07/02 08:21:12;;;;;;;6.68;1.35;;;20.30;99.90;;;;;;5125189;27;20540;-76
2022/07/02 08:23:37;;;;;;;5.38;1.10;;;20.30;99.90;;;;;;5090434;28;20816;-77
2022/07/02 08:26:03;;;;;;;3.58;0.80;;;20.30;99.90;;;;;;5091676;28;20087;-80
2022/07/02 08:28:28;;;;;;;2.17;0.80;;;20.30;99.90;;;;;;5080624;28;20044;-80
2022/07/02 08:30:54;;;;;;;4.13;0.82;;;20.20;99.90;;;;;;5088988;28;20119;-81
2022/07/02 08:33:20;;;;;;;3.10;0.80;;;20.30;99.90;;;;;;5086222;28;20084;-79
2022/07/02 08:35:45;;;;;;;3.72;0.70;;;20.30;99.90;;;;;;5116290;27;20044;-79
2022/07/02 08:38:11;;;;;;;2.13;0.55;;;20.30;99.90;;;;;;5088900;28;20051;-82
2022/07/02 08:40:40;;;;;;;1.70;0.47;;;20.70;99.90;;;;;;5090893;28;20143;-81
2022/07/02 08:43:07;;;;;;;2.50;0.52;;;20.30;99.90;;;;;;5109270;28;20069;-81
2022/07/02 08:45:33;;;;;;;1.83;0.60;;;20.60;99.90;;;;;;5114816;28;20058;-81
2022/07/02 08:47:59;;;;;;;2.40;0.60;;;20.60;98.90;;;;;;5092256;27;20400;-81
2022/07/02 08:50:26;;;;;;;1.25;0.50;;;20.60;99.90;;;;;;5110225;27;20816;-81
2022/07/02 08:52:52;;;;;;;2.00;0.43;;;20.70;99.60;;;;;;5087864;28;20457;-81
2022/07/02 08:55:19;;;;;;;3.00;0.40;;;20.70;99.90;;;;;;5092268;28;20058;-81
2022/07/02 08:57:47;;;;;;;1.83;0.30;;;20.80;99.90;;;;;;5120088;27;20068;-81
2022/07/02 09:00:14;;;;;;;2.03;0.50;;;20.90;99.80;;;;;;5106673;27;20051;-82
2022/07/02 09:02:41;;;;;;;3.42;0.75;;;21.00;99.70;;;;;;5085180;28;20097;-80
2022/07/02 09:05:09;;;;;;;2.72;0.52;;;21.10;98.10;;;;;;5094144;28;20123;-82
2022/07/02 09:07:36;;;;;;;2.03;0.50;;;21.10;97.10;;;;;;5082857;28;20683;-80
2022/07/02 09:10:06;;;;;;;1.55;0.40;;;21.10;97.50;;;;;;5118495;27;20179;-80
2022/07/02 09:12:32;;;;;;;1.70;0.50;;;21.10;97.80;;;;;;5081254;28;20040;-81
2022/07/02 09:14:58;;;;;;;2.30;0.50;;;21.20;97.00;;;;;;5109861;27;20040;-82
2022/07/02 09:17:24;;;;;;;2.15;0.40;;;21.40;97.10;;;;;;5069471;28;20048;-81
2022/07/02 09:19:50;;;;;;;3.28;0.65;;;21.40;96.50;;;;;;5098403;28;20047;-81
2022/07/02 09:22:17;;;;;;;0.95;0.38;;;21.40;96.90;;;;;;5069874;28;20052;-81
2022/07/02 09:24:44;;;;;;;2.22;0.43;;;21.30;96.80;;;;;;5072992;28;20487;-81
2022/07/02 09:27:21;;;;;;;2.00;0.40;;;21.40;97.10;;;;;;5098983;27;20494;-80
2022/07/02 09:29:49;;;;;;;1.20;0.50;;;21.50;97.00;;;;;;5085384;28;20047;-85
2022/07/02 09:32:17;;;;;;;0.50;0.30;;;21.50;97.00;;;;;;5080636;28;20133;-84
2022/07/02 09:34:45;;;;;;;3.53;0.47;;;21.80;96.50;;;;;;5069546;28;20056;-78
2022/07/02 09:37:20;;;;;;;4.13;0.32;;;21.90;96.50;;;;;;5111511;27;20048;-80
2022/07/02 09:39:47;;;;;;;2.63;0.30;;;22.00;95.70;;;;;;5081441;28;20459;-79
2022/07/02 09:42:26;;;;;;;1.83;0.30;;;22.00;95.50;;;;;;5080997;28;20576;-83
2022/07/02 09:44:52;;;;;;;2.97;0.40;;;22.20;95.50;;;;;;5086535;28;20048;-83
2022/07/02 09:50:24;;;;;;;2.03;0.30;;;22.20;93.90;;;;;;5097426;28;20051;-84
2022/07/02 09:52:53;;;;;;;3.97;0.45;;;22.20;92.40;;;;;;5080040;28;20699;-83
2022/07/02 09:55:27;;;;;;;1.48;0.30;;;22.20;93.00;;;;;;5079224;28;20056;-84
2022/07/02 09:57:53;;;;;;;;;;;22.20;93.10;;;;;;5074940;28;20064;-83
2022/07/02 10:00:20;;;;;;;1.83;0.30;;;22.30;93.20;;;;;;5078640;28;19923;-84
2022/07/02 10:02:50;;;;;;;2.42;0.40;;;22.60;93.70;;;;;;5100590;28;20047;-85
2022/07/02 10:05:28;;;;;;;2.78;0.40;;;22.70;91.70;;;;;;5075802;28;20597;-86
2022/07/02 10:07:56;;;;;;;1.10;0.20;;;22.30;92.30;;;;;;5070542;28;20771;-86
2022/07/02 10:10:28;;;;;;;2.42;0.30;;;22.50;92.70;;;;;;5074899;28;20107;-85
2022/07/02 10:13:00;;;;;;;0.98;0.40;;;22.60;92.20;;;;;;5075185;28;20566;-86
2022/07/02 10:15:31;;;;;;;1.13;0.30;;;22.30;91.90;;;;;;5077749;28;20048;-85
2022/07/02 10:17:57;;;;;;;2.72;0.43;;;22.30;91.80;;;;;;5065675;28;20051;-85
2022/07/02 10:20:23;;;;;;;2.05;0.43;;;22.30;91.90;;;;;;5079247;28;20056;-85
2022/07/02 10:22:50;;;;;;;3.80;0.50;;;22.60;91.80;;;;;;5065807;28;20039;-85
2022/07/02 10:25:17;;;;;;;1.23;0.22;;;22.40;92.30;;;;;;5076990;28;20048;-84
2022/07/02 10:27:45;;;;;;;1.73;0.50;;;22.50;91.70;;;;;;5088147;28;20142;-84
2022/07/02 10:30:11;;;;;;;1.65;0.47;;;22.70;91.90;;;;;;5087184;28;20527;-86
2022/07/02 10:32:54;;;;;;;0.90;0.30;;;22.50;91.80;;;;;;5074782;28;20085;-86
2022/07/02 10:35:23;;;;;;;3.22;0.38;;;22.60;91.50;;;;;;5064937;28;20105;-88
2022/07/02 10:37:59;;;;;;;1.88;0.40;;;22.60;91.00;;;;;;5079593;28;20764;-91
2022/07/02 10:40:25;;;;;;;0.82;0.22;;;22.70;90.20;;;;;;5062317;28;20476;-86
2022/07/02 10:42:52;;;;;;;2.13;0.40;;;22.60;89.70;;;;;;5061680;28;20064;-87
2022/07/02 10:45:20;;;;;;;1.27;0.38;;;22.70;91.20;;;;;;5095244;28;20155;-85
2022/07/02 10:47:54;;;;;;;2.50;0.43;;;22.80;91.50;;;;;;5073830;28;20169;-86
2022/07/02 10:50:25;;;;;;;4.25;0.40;;;22.90;90.40;;;;;;5074311;28;20121;-87
2022/07/02 10:52:53;;;;;;;3.25;0.47;;;23.00;90.00;;;;;;5071821;28;20044;-86
2022/07/02 10:55:29;;;;;;;1.77;0.30;;;23.10;90.40;;;;;;5066460;28;20134;-85
2022/07/02 10:57:59;;;;;;;1.88;0.38;;;23.20;91.10;;;;;;5105247;27;20044;-87
2022/07/02 11:00:36;;;;;;;1.58;0.40;;;23.30;91.30;;;;;;5094542;28;20159;-87
2022/07/02 11:03:15;;;;;;;2.50;0.40;;;23.30;90.70;;;;;;5080837;28;20059;-86
2022/07/02 11:06:18;;;;;;;2.35;0.40;;;23.40;90.30;;;;;;5113779;27;20479;-85
2022/07/02 11:08:47;;;;;;;2.65;0.50;;;23.30;90.70;;;;;;5083744;28;20055;-86
2022/07/02 11:11:34;;;;;;;2.00;0.30;;;23.20;90.60;;;;;;5078648;28;20045;-85
2022/07/02 11:14:07;;;;;;;1.55;0.40;;;23.00;90.00;;;;;;5100975;28;20047;-84
2022/07/02 11:16:38;;;;;;;3.67;0.50;;;22.90;90.60;;;;;;5070407;28;20044;-85
2022/07/02 11:19:13;;;;;;;1.30;0.40;;;22.80;90.20;;;;;;5081164;28;20118;-85
2022/07/02 11:21:40;;;;;;;4.68;0.50;;;22.90;90.80;;;;;;5072140;28;20043;-84
2022/07/02 11:24:06;;;;;;;3.85;0.40;;;23.10;91.10;;;;;;5077014;28;20050;-84
2022/07/02 11:26:45;;;;;;;2.80;0.60;;;23.10;89.60;;;;;;5075783;28;20049;-81
2022/07/02 11:29:12;;;;;;;0.73;0.30;;;22.80;86.80;;;;;;5063692;28;20139;-82
2022/07/02 11:31:59;;;;;;;1.92;0.30;;;22.80;88.20;;;;;;5079532;28;20051;-81
2022/07/02 11:34:30;;;;;;;1.95;0.55;;;22.80;89.30;;;;;;5058113;28;20044;-86
2022/07/02 11:36:57;;;;;;;1.63;0.40;;;22.80;89.50;;;;;;5061901;28;20124;-87
2022/07/02 11:39:24;;;;;;;1.25;0.38;;;22.80;88.40;;;;;;5083563;28;20130;-88
2022/07/02 11:41:51;;;;;;;7.35;0.43;;;22.90;89.10;;;;;;5093666;27;20048;-81
2022/07/02 11:44:21;;;;;;;1.35;0.40;;;23.20;89.30;;;;;;5063398;28;20486;-88
2022/07/02 11:46:58;;;;;;;1.38;0.30;;;23.30;89.10;;;;;;5076045;28;20193;-89
2022/07/02 11:49:30;;;;;;;2.28;0.30;;;23.20;87.70;;;;;;5083636;28;20044;-86
2022/07/02 11:51:56;;;;;;;1.30;0.30;;;23.20;90.10;;;;;;5098484;28;20776;-86
2022/07/02 11:54:23;;;;;;;1.02;0.20;;;23.20;89.80;;;;;;5093363;28;20043;-86
2022/07/02 11:56:50;;;;;;;2.35;0.30;;;23.30;88.90;;;;;;5110153;28;20047;-86
2022/07/02 11:59:18;;;;;;;2.65;0.38;;;23.40;87.50;;;;;;5081460;28;20067;-86
2022/07/02 12:01:45;;;;;;;2.17;0.40;;;23.30;88.10;;;;;;5079685;28;20044;-86
2022/07/02 12:04:12;;;;;;;2.47;0.30;;;23.20;87.20;;;;;;5079713;28;20149;-86
2022/07/02 12:06:46;;;;;;;1.77;0.30;;;23.40;88.50;;;;;;5081357;28;20062;-86
2022/07/02 12:09:30;;;;;;;;;;;23.60;87.00;;;;;;5114533;28;20869;-86
2022/07/02 12:11:58;;;;;;;3.33;0.40;;;23.60;87.70;;;;;;5077637;28;19931;-86
2022/07/02 12:14:25;;;;;;;1.77;0.40;;;23.70;88.10;;;;;;5081421;28;20132;-86
2022/07/02 12:16:52;;;;;;;2.03;0.30;;;23.80;88.00;;;;;;5113072;28;20056;-86
2022/07/02 12:19:18;;;;;;;1.92;0.30;;;24.00;87.60;;;;;;5102681;28;20785;-85
2022/07/02 12:21:48;;;;;;;1.48;0.30;;;24.00;87.40;;;;;;5061051;28;20056;-86
2022/07/02 12:24:28;;;;;;;2.25;0.30;;;24.00;86.90;;;;;;5071811;28;20085;-86
2022/07/02 12:26:58;;;;;;;1.33;0.30;;;23.90;85.10;;;;;;5113137;28;20048;-86
2022/07/02 12:32:16;;;;;;;1.65;0.40;;;23.80;87.90;;;;;;5072023;28;20225;-86
2022/07/02 12:34:51;;;;;;;2.03;0.40;;;23.90;88.00;;;;;;5081681;28;20052;-86
2022/07/02 12:37:23;;;;;;;1.90;0.50;;;23.80;87.30;;;;;;5062426;28;20129;-85
2022/07/02 12:39:50;;;;;;;2.22;0.50;;;23.80;86.20;;;;;;5059919;28;20048;-86
2022/07/02 12:42:17;;;;;;;3.38;0.80;;;23.70;87.30;;;;;;5092934;28;20059;-85
2022/07/02 12:44:51;;;;;;;3.80;0.60;;;23.70;88.00;;;;;;5095219;27;20063;-86
2022/07/02 12:47:34;;;;;;;2.88;0.50;;;24.10;88.50;;;;;;5096396;28;20834;-86
2022/07/02 12:50:12;;;;;;;2.42;0.70;;;24.20;85.30;;;;;;5062567;28;20070;-86
2022/07/02 12:52:49;;;;;;;2.33;0.60;;;24.40;86.50;;;;;;5077504;28;20120;-86
2022/07/02 12:55:27;;;;;;;3.10;0.57;;;24.60;87.20;;;;;;5063053;28;20083;-86
2022/07/02 12:57:55;;;;;;;3.72;0.50;;;24.70;84.80;;;;;;5064430;28;20072;-86
2022/07/02 13:00:22;;;;;;;2.72;0.60;;;24.80;87.20;;;;;;5063882;28;20092;-86
2022/07/02 13:03:23;;;;;;;1.83;0.50;;;24.90;87.20;;;;;;5096518;28;20051;-86
2022/07/02 13:05:54;;;;;;;1.48;0.45;;;24.90;86.90;;;;;;5061127;28;20084;-86
2022/07/02 13:08:21;;;;;;;0.75;0.20;;;24.90;86.50;;;;;;5063812;28;20110;-86
2022/07/02 13:10:49;;;;;;;3.92;0.50;;;25.00;86.50;;;;;;5063800;28;20052;-86